Detalii statie AGROKAISER STANESTI [0000198D]

Toti senzorii

Date Temperatura solului [C]Precipitatii [mm]Voltaj baterie [mV]Leaf Wetness [Min]HC Air temperature [C]HC Relative humidity [%]Punctul de roua [C]
medieminmaxsumaultimatimpmedieminmaxmediemediemin
2018-12-09 16:00:00 0 7050 5.1 4.53 5.88 100 5 4.5
2018-12-09 17:00:00 0 6854 3.57 2.94 4.59 100 3.5 2.9
2018-12-09 18:00:00 0 6796 2.29 1.71 2.78 100 2.2 1.7
2018-12-09 19:00:00 0 6786 2.37 1.9 2.57 100 2.3 1.9
2018-12-09 20:00:00 0 6776 2.02 1.46 2.45 100 1.9 1.4
2018-12-09 21:00:00 0 6766 1.55 1.32 1.81 100 1.5 1.3
2018-12-09 22:00:00 0 6766 1.3 1.07 1.63 100 1.2 1
2018-12-09 23:00:00 0 6756 0.49 -0.89 1.8 100 0.5 -0.7
2018-12-10 00:00:00 0 6756 0.03 -0.93 0.66 100 0 -0.8
2018-12-10 01:00:00 0 6738 -1.78 -2.01 -1.49 100 -1.6 -1.9
2018-12-10 02:00:00 0 6738 -1.77 -1.9 -1.59 100 -1.6 -1.8
2018-12-10 03:00:00 0 6738 -2.01 -2.12 -1.88 100 -1.8 -2
2018-12-10 04:00:00 0 6738 -1.86 -1.98 -1.78 100 -1.7 -1.8
2018-12-10 05:00:00 0 6728 -2.06 -2.37 -1.94 100 -1.9 -2.2
2018-12-10 06:00:00 0 6728 -2.6 -2.78 -2.36 100 -2.4 -2.6
2018-12-10 07:00:00 0 6718 -2.45 -2.66 -2.33 100 -2.3 -2.5
2018-12-10 08:00:00 0 6718 -2.43 -2.52 -2.3 100 -2.3 -2.4
2018-12-10 09:00:00 0 6864 -2.13 -2.3 -1.97 100 -2 -2.2
2018-12-10 10:00:00 0 6972 -1.53 -1.89 -1.07 100 -1.3 -1.7
2018-12-10 11:00:00 0 7274 -0.44 -1.02 0.01 100 -0.3 -0.9
2018-12-10 12:00:00 0 7264 0.84 0.29 1.23 100 0.8 0.2
2018-12-10 13:00:00 0.4 7196 1.06 0.89 1.27 100 1 0.8
2018-12-10 14:00:00 0 7254 1.37 1.21 1.62 100 1.3 1.2
2018-12-10 15:00:00 0 7264 1.79 1.58 1.93 100 1.7 1.5
2018-12-10 16:00:00 0 7070 1.9 1.81 2.02 100 1.8 1.8
2018-12-10 17:00:00 0 6884 1.45 1.29 1.77 100 1.4 1.2
2018-12-10 18:00:00 0 6806 0.95 0.77 1.16 100 0.9 0.7
2018-12-10 19:00:00 0 6776 1.04 0.75 1.32 100 0.9 0.7
2018-12-10 20:00:00 0 6756 1.29 1.13 1.58 100 1.2 1.1
2018-12-10 21:00:00 0 6766 1.39 1.18 1.52 100 1.3 1.1
2018-12-10 22:00:00 0 6748 1.4 1.21 1.48 100 1.3 1.2
2018-12-10 23:00:00 0 6756 1.53 1.47 1.67 100 1.4 1.4
2018-12-11 00:00:00 0 6748 1.76 1.69 1.84 100 1.7 1.6
2018-12-11 01:00:00 0 6738 1.67 1.6 1.74 100 1.6 1.6
2018-12-11 02:00:00 0 6738 1.76 1.7 1.82 100 1.7 1.7
2018-12-11 03:00:00 0 6738 1.73 1.63 1.83 100 1.6 1.6
2018-12-11 04:00:00 0 6718 1.46 1.37 1.58 100 1.4 1.3
2018-12-11 05:00:00 0 6728 1.39 1.35 1.47 100 1.3 1.3
2018-12-11 06:00:00 0 6728 1.44 1.39 1.48 100 1.3 1.3
2018-12-11 07:00:00 0 6728 1.27 1.2 1.37 100 1.2 1.2
2018-12-11 08:00:00 0 6718 1.28 1.22 1.34 100 1.2 1.2
2018-12-11 09:00:00 0 6718 1.48 1.36 1.57 100 1.4 1.3
2018-12-11 10:00:00 1 6728 1.18 0.69 1.37 100 1.1 0.6
2018-12-11 11:00:00 1 6806 0.85 0.55 1.31 100 0.8 0.5
2018-12-11 12:00:00 0.2 7040 1.97 1.39 2.85 100 1.9 1.3
2018-12-11 13:00:00 0 7060 2.72 2.44 2.9 100 2.6 2.4
2018-12-11 14:00:00 0 7000 2.54 2.45 2.68 100 2.4 2.4
2018-12-11 15:00:00 0 6806 2.24 2.05 2.49 100 2.1 2